createdAt,value
2023-05-09T00:02:01.354Z,101130.45
2023-05-09T00:04:32.765Z,101127.23
2023-05-09T00:07:03.697Z,101132.48
2023-05-09T00:09:34.398Z,101129.55
2023-05-09T00:12:05.744Z,101129.05
2023-05-09T00:14:37.143Z,101128.22
2023-05-09T00:17:08.322Z,101126.59
2023-05-09T00:19:39.212Z,101117.30
2023-05-09T00:22:10.675Z,101122.38
2023-05-09T00:24:41.407Z,101119.15
2023-05-09T00:27:12.217Z,101119.04
2023-05-09T00:29:42.809Z,101118.91
2023-05-09T00:32:13.735Z,101115.95
2023-05-09T00:34:44.479Z,101114.42
2023-05-09T00:37:15.188Z,101115.23
2023-05-09T00:39:45.871Z,101111.03
2023-05-09T00:42:16.739Z,101109.35
2023-05-09T00:44:47.510Z,101103.15
2023-05-09T00:47:18.276Z,101102.70
2023-05-09T00:49:49.538Z,101104.27
2023-05-09T00:52:23.354Z,101098.14
2023-05-09T00:54:54.658Z,101100.64
2023-05-09T00:57:26.102Z,101102.68
2023-05-09T00:59:57.101Z,101104.11
2023-05-09T01:02:28.235Z,101102.10
2023-05-09T01:04:59.782Z,101101.77
2023-05-09T01:07:45.189Z,101097.31
2023-05-09T01:10:22.813Z,101098.30
2023-05-09T01:13:04.468Z,101094.79
2023-05-09T01:15:40.946Z,101098.83
2023-05-09T01:18:18.352Z,101090.77
2023-05-09T01:20:53.261Z,101084.39
2023-05-09T01:23:53.694Z,101087.16
2023-05-09T01:26:37.655Z,101081.61
2023-05-09T01:29:38.024Z,101079.11
2023-05-09T01:32:15.430Z,101076.90
2023-05-09T01:34:48.807Z,101070.95
2023-05-09T01:37:24.957Z,101069.20
2023-05-09T01:39:58.497Z,101069.89
2023-05-09T01:42:35.101Z,101070.39
2023-05-09T01:45:09.098Z,101068.52
2023-05-09T01:47:41.076Z,101068.27
2023-05-09T01:50:13.696Z,101069.30
2023-05-09T01:52:43.210Z,101065.27
2023-05-09T01:55:16.124Z,101065.30
2023-05-09T01:57:48.216Z,101066.50
2023-05-09T02:00:20.358Z,101063.55
2023-05-09T02:02:51.923Z,101060.61
2023-05-09T02:05:25.918Z,101059.34
2023-05-09T02:07:58.499Z,101059.66
2023-05-09T02:10:30.021Z,101056.95
2023-05-09T02:13:01.876Z,101054.20
2023-05-09T02:15:33.548Z,101052.56
2023-05-09T02:18:04.286Z,101047.34
2023-05-09T02:20:36.056Z,101053.09
2023-05-09T02:23:06.884Z,101052.16
2023-05-09T02:25:38.159Z,101053.54
2023-05-09T02:28:10.965Z,101053.23
2023-05-09T02:30:46.774Z,101055.70
2023-05-09T02:33:17.961Z,101057.09
2023-05-09T02:35:49.823Z,101050.90
2023-05-09T02:38:21.520Z,101056.59
2023-05-09T02:40:53.294Z,101051.64
2023-05-09T02:43:23.921Z,101047.83
2023-05-09T02:45:54.653Z,101048.19
2023-05-09T02:48:25.522Z,101047.00
2023-05-09T02:50:57.252Z,101045.34
2023-05-09T02:53:28.399Z,101045.82
2023-05-09T02:55:59.426Z,101040.14
2023-05-09T02:58:30.081Z,101041.66
2023-05-09T03:01:00.909Z,101042.69
2023-05-09T03:03:34.209Z,101045.02
2023-05-09T03:06:06.367Z,101048.52
2023-05-09T03:08:36.977Z,101044.88
2023-05-09T03:11:07.734Z,101045.70
2023-05-09T03:13:38.434Z,101046.50
2023-05-09T03:16:09.784Z,101045.41
2023-05-09T03:18:40.503Z,101040.90
2023-05-09T03:21:11.409Z,101036.60
2023-05-09T03:23:42.952Z,101039.30
2023-05-09T03:26:13.619Z,101039.98
2023-05-09T03:28:44.856Z,101039.86
2023-05-09T03:31:15.842Z,101037.29
2023-05-09T03:33:46.825Z,101030.52
2023-05-09T03:36:18.481Z,101028.23
2023-05-09T03:38:49.149Z,101027.51
2023-05-09T03:41:22.345Z,101025.09
2023-05-09T03:43:53.034Z,101025.50
2023-05-09T03:46:23.797Z,101022.71
2023-05-09T03:48:54.716Z,101022.02
2023-05-09T03:51:26.418Z,101016.59
2023-05-09T03:53:57.539Z,101014.85
2023-05-09T03:56:28.537Z,101017.62
2023-05-09T03:58:59.291Z,101015.33
2023-05-09T04:01:30.244Z,101014.91
2023-05-09T04:04:01.472Z,101016.30
2023-05-09T04:06:34.777Z,101014.57
2023-05-09T04:09:06.883Z,101011.28
2023-05-09T04:11:37.614Z,101011.41
2023-05-09T04:14:09.724Z,101015.36
2023-05-09T04:16:40.705Z,101015.33
2023-05-09T04:19:11.737Z,101018.13
2023-05-09T04:21:42.622Z,101017.56
2023-05-09T04:24:13.403Z,101015.83
2023-05-09T04:26:49.359Z,101014.83
2023-05-09T04:29:23.174Z,101010.97
2023-05-09T04:31:57.072Z,101006.99
2023-05-09T04:34:29.869Z,101005.47
2023-05-09T04:37:02.856Z,101008.27
2023-05-09T04:39:34.638Z,101009.02
2023-05-09T04:42:11.710Z,101009.67
2023-05-09T04:44:42.392Z,101005.70
2023-05-09T04:47:13.491Z,100995.15
2023-05-09T04:49:44.192Z,100996.96
2023-05-09T04:52:14.816Z,100994.68
2023-05-09T04:54:46.947Z,100991.28
2023-05-09T04:57:19.058Z,100990.00
2023-05-09T04:59:54.426Z,100983.46
2023-05-09T05:02:25.365Z,100987.09
2023-05-09T05:05:06.193Z,100978.80
2023-05-09T05:07:41.892Z,100977.58
2023-05-09T05:10:14.593Z,100975.67
2023-05-09T05:12:47.538Z,100975.89
2023-05-09T05:15:19.499Z,100985.52
2023-05-09T05:17:50.464Z,100981.70
2023-05-09T05:20:23.105Z,100978.17
2023-05-09T05:22:54.994Z,100979.85
2023-05-09T05:25:26.485Z,100974.96
2023-05-09T05:27:57.361Z,100978.13
2023-05-09T05:30:28.268Z,100972.61
2023-05-09T05:32:59.009Z,100973.80
2023-05-09T05:35:30.062Z,100969.14
2023-05-09T05:38:01.058Z,100973.96
2023-05-09T05:40:32.365Z,100969.74
2023-05-09T05:43:05.429Z,100963.55
2023-05-09T05:45:37.829Z,100961.55
2023-05-09T05:48:10.162Z,100962.39
2023-05-09T05:50:41.043Z,100962.15
2023-05-09T05:53:14.381Z,100965.77
2023-05-09T05:55:46.810Z,100960.54
2023-05-09T05:58:17.528Z,100965.45
2023-05-09T06:00:48.272Z,100949.74
2023-05-09T06:03:19.149Z,100948.17
2023-05-09T06:05:54.231Z,100947.42
2023-05-09T06:08:25.051Z,100936.54
2023-05-09T06:10:55.818Z,100936.67
2023-05-09T06:13:26.815Z,100936.05
2023-05-09T06:16:15.184Z,100930.95
2023-05-09T06:18:54.209Z,100929.80
2023-05-09T06:21:26.837Z,100930.27
2023-05-09T06:24:08.537Z,100927.86
2023-05-09T06:26:43.279Z,100922.67
2023-05-09T06:29:15.389Z,100933.20
2023-05-09T06:31:44.444Z,100925.25
2023-05-09T06:34:15.084Z,100914.67
2023-05-09T06:36:45.716Z,100918.11
2023-05-09T06:39:16.469Z,100926.92
2023-05-09T06:41:47.220Z,100919.56
2023-05-09T06:44:24.207Z,100909.84
2023-05-09T06:46:54.971Z,100909.84
2023-05-09T06:49:26.475Z,100909.98
2023-05-09T06:51:57.201Z,100911.15
2023-05-09T06:54:27.842Z,100907.54
2023-05-09T06:56:58.491Z,100909.52
2023-05-09T06:59:29.313Z,100900.73
2023-05-09T07:01:59.992Z,100891.96
2023-05-09T07:04:30.924Z,100891.55
2023-05-09T07:07:01.854Z,100886.69
2023-05-09T07:09:32.437Z,100899.41
2023-05-09T07:12:03.732Z,100886.81
2023-05-09T07:14:34.238Z,100880.20
2023-05-09T07:17:21.326Z,100875.55
2023-05-09T07:19:53.998Z,100872.66
2023-05-09T07:22:24.914Z,100872.70
2023-05-09T07:24:56.054Z,100874.61
2023-05-09T07:27:26.792Z,100868.50
2023-05-09T07:29:57.558Z,100864.96
2023-05-09T07:32:28.831Z,100865.02
2023-05-09T07:34:59.612Z,100864.72
2023-05-09T07:37:30.213Z,100860.46
2023-05-09T07:40:00.910Z,100854.85
2023-05-09T07:42:32.723Z,100854.86
2023-05-09T07:45:06.113Z,100849.88
2023-05-09T07:47:37.089Z,100840.30
2023-05-09T07:50:09.562Z,100832.56
2023-05-09T07:52:40.129Z,100823.23
2023-05-09T07:55:12.349Z,100827.19
2023-05-09T07:57:42.977Z,100820.06
2023-05-09T08:00:16.401Z,100811.77
2023-05-09T08:02:47.033Z,100813.75
2023-05-09T08:05:18.324Z,100804.23
2023-05-09T08:07:49.124Z,100804.25
2023-05-09T08:10:19.454Z,100811.04
2023-05-09T08:12:50.358Z,100812.37
2023-05-09T08:15:21.312Z,100810.08
2023-05-09T08:17:52.106Z,100799.86
2023-05-09T08:20:23.024Z,100805.23
2023-05-09T08:22:53.920Z,100812.69
2023-05-09T08:25:24.601Z,100798.23
2023-05-09T08:27:55.426Z,100802.16
2023-05-09T08:30:26.209Z,100791.52
2023-05-09T08:32:57.247Z,100798.23
2023-05-09T08:35:28.120Z,100795.35
2023-05-09T08:37:59.045Z,100787.73
2023-05-09T08:40:29.936Z,100782.16
2023-05-09T08:43:00.716Z,100790.87
2023-05-09T08:45:36.120Z,100784.74
2023-05-09T08:48:08.904Z,100778.83
2023-05-09T08:50:40.289Z,100775.01
2023-05-09T08:53:11.908Z,100770.91
2023-05-09T08:55:43.360Z,100768.94
2023-05-09T08:58:14.886Z,100762.97
2023-05-09T09:00:46.330Z,100760.14
2023-05-09T09:03:18.050Z,100754.95
2023-05-09T09:05:50.414Z,100752.81
2023-05-09T09:08:22.352Z,100750.03
2023-05-09T09:10:53.676Z,100749.34
2023-05-09T09:13:25.439Z,100747.48
2023-05-09T09:15:59.515Z,100745.89
2023-05-09T09:18:33.641Z,100741.47
2023-05-09T09:21:10.655Z,100735.00
2023-05-09T09:23:43.064Z,100735.85
2023-05-09T09:26:13.649Z,100736.05
2023-05-09T09:28:44.787Z,100733.13
2023-05-09T09:31:27.526Z,100734.68
2023-05-09T09:34:03.903Z,100734.06
2023-05-09T09:36:36.585Z,100744.00
2023-05-09T09:39:09.171Z,100747.93
2023-05-09T09:41:42.426Z,100746.31
2023-05-09T09:44:15.004Z,100744.59
2023-05-09T09:46:48.306Z,100729.68
2023-05-09T09:49:20.959Z,100731.60
2023-05-09T09:51:54.770Z,100726.25
2023-05-09T09:54:27.563Z,100729.78
2023-05-09T09:56:58.226Z,100730.75
2023-05-09T09:59:29.557Z,100728.10
2023-05-09T10:02:04.932Z,100715.15
2023-05-09T10:04:39.104Z,100723.81
2023-05-09T10:07:14.626Z,100719.27
2023-05-09T10:09:46.492Z,100715.86
2023-05-09T10:12:20.157Z,100717.70
2023-05-09T10:14:51.534Z,100714.04
2023-05-09T10:17:26.170Z,100718.38
2023-05-09T10:19:57.336Z,100703.37
2023-05-09T10:22:29.309Z,100706.59
2023-05-09T10:25:06.544Z,100694.34
2023-05-09T10:27:39.290Z,100691.47
2023-05-09T10:30:18.117Z,100690.64
2023-05-09T10:32:54.243Z,100681.84
2023-05-09T10:35:29.209Z,100673.79
2023-05-09T10:38:01.078Z,100671.80
2023-05-09T10:40:35.064Z,100674.35
2023-05-09T10:43:07.188Z,100676.33
2023-05-09T10:45:36.848Z,100660.36
2023-05-09T10:48:12.383Z,100649.69
2023-05-09T10:50:44.009Z,100652.37
2023-05-09T10:53:18.374Z,100634.41
2023-05-09T10:55:55.299Z,100642.27
2023-05-09T10:58:27.996Z,100644.80
2023-05-09T11:00:59.838Z,100637.52
2023-05-09T11:03:51.380Z,100631.81
2023-05-09T11:06:51.971Z,100619.88
2023-05-09T11:09:33.015Z,100609.37
2023-05-09T11:12:14.902Z,100609.55
2023-05-09T11:14:48.664Z,100601.35
2023-05-09T11:17:32.416Z,100606.14
2023-05-09T11:20:06.944Z,100592.55
2023-05-09T11:22:43.807Z,100594.86
2023-05-09T11:25:17.254Z,100593.62
2023-05-09T11:27:50.222Z,100580.86
2023-05-09T11:30:22.126Z,100591.08
2023-05-09T11:32:58.950Z,100584.42
2023-05-09T11:35:30.240Z,100582.52
2023-05-09T11:38:04.373Z,100573.39
2023-05-09T11:40:36.089Z,100564.11
2023-05-09T11:43:08.465Z,100562.15
2023-05-09T11:45:40.531Z,100557.95
2023-05-09T11:48:10.906Z,100540.33
2023-05-09T11:50:42.042Z,100535.41
2023-05-09T11:53:14.584Z,100537.27
2023-05-09T11:55:45.419Z,100539.98
2023-05-09T11:58:16.329Z,100542.27
2023-05-09T12:00:48.506Z,100526.56
2023-05-09T12:03:17.764Z,100521.00
2023-05-09T12:05:50.613Z,100519.27
2023-05-09T12:08:21.502Z,100510.87
2023-05-09T12:10:52.262Z,100506.58
2023-05-09T12:13:22.919Z,100507.50
2023-05-09T12:16:01.151Z,100504.48
2023-05-09T12:18:31.923Z,100512.98
2023-05-09T12:21:03.840Z,100508.95
2023-05-09T12:23:38.330Z,100499.42
2023-05-09T12:26:09.731Z,100507.88
2023-05-09T12:28:40.786Z,100496.15
2023-05-09T12:31:13.007Z,100493.40
2023-05-09T12:33:44.003Z,100488.81
2023-05-09T12:36:16.163Z,100477.39
2023-05-09T12:38:56.456Z,100480.87
2023-05-09T12:41:39.031Z,100484.02
2023-05-09T12:44:22.270Z,100486.58
2023-05-09T12:47:03.699Z,100481.02
2023-05-09T12:49:37.866Z,100470.36
2023-05-09T12:52:21.660Z,100459.11
2023-05-09T12:54:55.222Z,100454.44
2023-05-09T12:57:29.340Z,100459.60
2023-05-09T13:00:03.995Z,100459.59
2023-05-09T13:02:39.866Z,100453.98
2023-05-09T13:05:13.607Z,100449.90
2023-05-09T13:07:46.765Z,100448.02
2023-05-09T13:10:21.424Z,100436.20
2023-05-09T13:12:53.456Z,100438.36
2023-05-09T13:15:26.824Z,100434.92
2023-05-09T13:17:57.752Z,100426.79
2023-05-09T13:20:28.454Z,100426.37
2023-05-09T13:22:59.197Z,100422.41
2023-05-09T13:25:30.179Z,100425.21
2023-05-09T13:28:00.810Z,100418.42
2023-05-09T13:30:32.088Z,100409.68
2023-05-09T13:33:16.796Z,100395.61
2023-05-09T13:35:53.427Z,100390.11
2023-05-09T13:38:24.131Z,100387.09
2023-05-09T13:40:54.973Z,100377.27
2023-05-09T13:43:25.793Z,100371.32
2023-05-09T13:45:56.477Z,100370.05
2023-05-09T13:48:27.509Z,100364.54
2023-05-09T13:50:59.930Z,100371.18
2023-05-09T13:53:31.411Z,100361.31
2023-05-09T13:56:02.040Z,100353.52
2023-05-09T13:58:32.731Z,100349.48
2023-05-09T14:01:03.698Z,100349.00
2023-05-09T14:03:34.492Z,100350.73
2023-05-09T14:06:05.479Z,100333.55
2023-05-09T14:08:36.501Z,100331.20
2023-05-09T14:11:09.043Z,100326.46
2023-05-09T14:13:39.931Z,100321.10
2023-05-09T14:16:10.739Z,100322.98
2023-05-09T14:18:41.478Z,100319.02
2023-05-09T14:21:12.174Z,100307.40
2023-05-09T14:23:43.231Z,100302.64
2023-05-09T14:26:13.887Z,100302.32
2023-05-09T14:28:45.889Z,100300.10
2023-05-09T14:31:17.387Z,100303.67
2023-05-09T14:33:48.386Z,100311.31
2023-05-09T14:36:19.041Z,100309.77
2023-05-09T14:38:49.735Z,100298.48
2023-05-09T14:41:21.497Z,100293.58
2023-05-09T14:43:52.556Z,100285.02
2023-05-09T14:46:24.873Z,100287.07
2023-05-09T14:48:57.654Z,100279.44
2023-05-09T14:51:28.606Z,100277.77
2023-05-09T14:53:59.452Z,100274.24
2023-05-09T14:56:31.207Z,100266.83
2023-05-09T14:59:03.484Z,100265.42
2023-05-09T15:01:34.171Z,100267.40
2023-05-09T15:04:05.087Z,100266.31
2023-05-09T15:06:35.542Z,100258.98
2023-05-09T15:09:06.922Z,100254.73
2023-05-09T15:11:47.915Z,100251.04
2023-05-09T15:14:19.374Z,100255.81
2023-05-09T15:16:51.713Z,100247.96
2023-05-09T15:19:23.145Z,100249.38
2023-05-09T15:21:53.870Z,100246.59
2023-05-09T15:24:24.681Z,100245.79
2023-05-09T15:26:55.370Z,100246.16
2023-05-09T15:29:26.117Z,100242.06
2023-05-09T15:31:57.352Z,100235.64
2023-05-09T15:34:28.191Z,100237.60
2023-05-09T15:36:59.873Z,100229.84
2023-05-09T15:39:34.932Z,100225.44
2023-05-09T15:42:08.625Z,100229.58
2023-05-09T15:44:39.351Z,100222.91
2023-05-09T15:47:10.102Z,100223.96
2023-05-09T15:49:41.151Z,100220.13
2023-05-09T15:52:12.578Z,100217.04
2023-05-09T15:54:45.308Z,100214.20
2023-05-09T15:57:17.594Z,100214.17
2023-05-09T15:59:46.599Z,100213.43
2023-05-09T16:02:17.393Z,100212.91
2023-05-09T16:04:48.157Z,100206.93
2023-05-09T16:07:20.425Z,100209.15
2023-05-09T16:09:51.213Z,100203.80
2023-05-09T16:12:21.954Z,100200.02
2023-05-09T16:14:52.726Z,100206.45
2023-05-09T16:17:23.456Z,100198.83
2023-05-09T16:19:54.152Z,100200.75
2023-05-09T16:22:24.746Z,100188.25
2023-05-09T16:24:55.363Z,100187.06
2023-05-09T16:27:26.040Z,100187.62
2023-05-09T16:29:56.941Z,100188.77
2023-05-09T16:32:27.718Z,100186.91
2023-05-09T16:34:58.332Z,100187.66
2023-05-09T16:37:29.839Z,100183.81
2023-05-09T16:40:00.678Z,100178.34
2023-05-09T16:42:31.593Z,100179.67
2023-05-09T16:45:02.474Z,100175.66
2023-05-09T16:47:33.227Z,100173.16
2023-05-09T16:50:04.699Z,100171.46
2023-05-09T16:52:35.459Z,100169.06
2023-05-09T16:55:07.139Z,100171.95
2023-05-09T16:57:37.847Z,100159.44
2023-05-09T17:00:11.746Z,100155.92
2023-05-09T17:02:42.574Z,100153.61
2023-05-09T17:05:13.551Z,100154.13
2023-05-09T17:07:44.215Z,100150.39
2023-05-09T17:10:15.445Z,100152.29
2023-05-09T17:12:46.825Z,100144.50
2023-05-09T17:15:17.726Z,100140.16
2023-05-09T17:17:48.742Z,100137.72
2023-05-09T17:20:19.577Z,100134.17
2023-05-09T17:22:50.305Z,100127.66
2023-05-09T17:25:20.985Z,100125.19
2023-05-09T17:27:51.603Z,100119.83
2023-05-09T17:30:23.399Z,100123.20
2023-05-09T17:32:54.407Z,100125.40
2023-05-09T17:35:25.876Z,100122.32
2023-05-09T17:37:56.513Z,100121.47
2023-05-09T17:40:27.820Z,100126.13
2023-05-09T17:42:58.624Z,100121.23
2023-05-09T17:45:35.151Z,100115.47
2023-05-09T17:48:06.030Z,100121.33
2023-05-09T17:50:36.912Z,100115.73
2023-05-09T17:53:08.789Z,100116.52
2023-05-09T17:55:39.649Z,100111.99
2023-05-09T17:58:10.465Z,100108.40
2023-05-09T18:00:41.519Z,100111.49
2023-05-09T18:03:12.385Z,100106.89
2023-05-09T18:05:43.351Z,100107.14
2023-05-09T18:08:14.195Z,100107.44
2023-05-09T18:10:45.086Z,100105.04
2023-05-09T18:13:19.035Z,100105.52
2023-05-09T18:15:49.844Z,100101.03
2023-05-09T18:18:20.706Z,100097.73
2023-05-09T18:20:51.438Z,100097.61
2023-05-09T18:23:24.935Z,100094.53
2023-05-09T18:25:56.079Z,100091.50
2023-05-09T18:28:28.864Z,100092.36
2023-05-09T18:31:01.347Z,100091.42
2023-05-09T18:33:36.673Z,100094.54
2023-05-09T18:36:09.908Z,100092.52
2023-05-09T18:38:41.639Z,100094.48
2023-05-09T18:41:13.827Z,100094.00
2023-05-09T18:43:47.002Z,100092.27
2023-05-09T18:46:20.061Z,100100.69
2023-05-09T18:48:52.817Z,100097.88
2023-05-09T18:51:24.209Z,100096.47
2023-05-09T18:53:55.074Z,100097.16
2023-05-09T18:56:25.852Z,100099.83
2023-05-09T18:58:56.619Z,100097.17
2023-05-09T19:01:27.475Z,100099.12
2023-05-09T19:03:58.287Z,100098.92
2023-05-09T19:06:29.239Z,100093.52
2023-05-09T19:09:01.611Z,100089.92
2023-05-09T19:11:30.812Z,100085.00
2023-05-09T19:14:01.610Z,100083.86
2023-05-09T19:16:32.549Z,100083.70
2023-05-09T19:19:03.716Z,100080.89
2023-05-09T19:21:35.722Z,100072.40
2023-05-09T19:24:07.390Z,100070.82
2023-05-09T19:26:38.063Z,100067.33
2023-05-09T19:29:09.218Z,100066.64
2023-05-09T19:31:40.234Z,100065.25
2023-05-09T19:34:11.068Z,100068.89
2023-05-09T19:36:41.952Z,100072.34
2023-05-09T19:39:12.625Z,100065.39
2023-05-09T19:41:43.335Z,100066.36
2023-05-09T19:44:13.948Z,100063.75
2023-05-09T19:46:44.861Z,100063.72
2023-05-09T19:49:17.907Z,100058.83
2023-05-09T19:51:48.874Z,100063.91
2023-05-09T19:54:19.628Z,100060.42
2023-05-09T19:56:50.276Z,100057.34
2023-05-09T19:59:21.126Z,100062.12
2023-05-09T20:01:51.965Z,100064.23
2023-05-09T20:04:24.092Z,100059.42
2023-05-09T20:06:55.082Z,100056.12
2023-05-09T20:09:25.729Z,100054.79
2023-05-09T20:11:56.534Z,100054.71
2023-05-09T20:14:27.180Z,100061.96
2023-05-09T20:16:57.905Z,100055.68
2023-05-09T20:19:28.919Z,100053.34
2023-05-09T20:21:59.646Z,100053.22
2023-05-09T20:24:31.393Z,100045.61
2023-05-09T20:27:03.190Z,100051.20
2023-05-09T20:29:33.818Z,100042.20
2023-05-09T20:32:04.829Z,100042.20
2023-05-09T20:34:35.740Z,100041.20
2023-05-09T20:37:06.425Z,100031.26
2023-05-09T20:39:37.073Z,100027.34
2023-05-09T20:42:07.882Z,100029.98
2023-05-09T20:44:39.517Z,100030.72
2023-05-09T20:47:10.318Z,100029.08
2023-05-09T20:49:40.967Z,100021.54
2023-05-09T20:52:11.788Z,100023.05
2023-05-09T20:54:42.615Z,100019.16
2023-05-09T20:57:13.815Z,100018.83
2023-05-09T20:59:45.363Z,100013.52
2023-05-09T21:02:16.245Z,100010.75
2023-05-09T21:04:47.143Z,100015.30
2023-05-09T21:07:19.720Z,100009.48
2023-05-09T21:09:50.838Z,100007.77
2023-05-09T21:12:21.579Z,100005.35
2023-05-09T21:14:52.219Z,100001.83
2023-05-09T21:17:23.251Z,99999.14
2023-05-09T21:19:53.934Z,99991.90
2023-05-09T21:22:24.653Z,99983.40
2023-05-09T21:24:55.485Z,99981.16
2023-05-09T21:27:27.074Z,99985.21
2023-05-09T21:29:58.056Z,99978.14
2023-05-09T21:32:29.053Z,99976.81
2023-05-09T21:34:59.719Z,99978.21
2023-05-09T21:37:30.608Z,99972.77
2023-05-09T21:40:04.813Z,99974.00
2023-05-09T21:42:37.428Z,99979.67
2023-05-09T21:45:10.276Z,99974.66
2023-05-09T21:47:41.241Z,99974.47
2023-05-09T21:50:13.790Z,99966.79
2023-05-09T21:52:44.945Z,99970.54
2023-05-09T21:55:16.076Z,99970.63
2023-05-09T21:57:46.798Z,99967.23
2023-05-09T22:00:20.562Z,99964.63
2023-05-09T22:02:51.247Z,99965.41
2023-05-09T22:05:23.302Z,99964.70
2023-05-09T22:07:54.372Z,99962.63
2023-05-09T22:10:25.289Z,99958.63
2023-05-09T22:12:56.209Z,99956.09
2023-05-09T22:15:27.850Z,99955.17
2023-05-09T22:17:58.815Z,99955.98
2023-05-09T22:20:32.416Z,99953.56
2023-05-09T22:23:03.187Z,99955.30
2023-05-09T22:25:33.851Z,99952.73
2023-05-09T22:28:04.704Z,99951.44
2023-05-09T22:30:35.433Z,99944.83
2023-05-09T22:33:06.747Z,99941.23
2023-05-09T22:35:37.506Z,99941.16
2023-05-09T22:38:08.378Z,99942.95
2023-05-09T22:40:39.385Z,99933.34
2023-05-09T22:43:11.647Z,99934.35
2023-05-09T22:45:42.442Z,99932.34
2023-05-09T22:48:13.465Z,99930.74
2023-05-09T22:50:44.224Z,99929.48
2023-05-09T22:53:15.235Z,99930.60
2023-05-09T22:55:46.233Z,99920.96
2023-05-09T22:58:17.309Z,99925.90
2023-05-09T23:00:47.948Z,99915.73
2023-05-09T23:03:18.881Z,99910.29
2023-05-09T23:05:50.228Z,99909.63
2023-05-09T23:08:20.995Z,99909.86
2023-05-09T23:10:51.584Z,99903.59
2023-05-09T23:13:22.395Z,99899.14
2023-05-09T23:15:53.203Z,99901.00
2023-05-09T23:18:23.948Z,99899.70
2023-05-09T23:20:54.554Z,99895.89
2023-05-09T23:23:25.202Z,99895.44
2023-05-09T23:25:55.848Z,99891.85
2023-05-09T23:28:26.585Z,99887.52
2023-05-09T23:30:57.314Z,99886.54
2023-05-09T23:33:28.069Z,99881.41
2023-05-09T23:35:59.139Z,99883.48
2023-05-09T23:38:29.952Z,99877.67
2023-05-09T23:41:01.137Z,99875.09
2023-05-09T23:43:31.807Z,99877.39
2023-05-09T23:46:02.501Z,99876.19
2023-05-09T23:48:33.648Z,99870.27
2023-05-09T23:51:04.603Z,99867.38
2023-05-09T23:53:35.315Z,99863.59
2023-05-09T23:56:08.011Z,99868.77
2023-05-09T23:58:38.710Z,99865.70
